Weather at Lutong Airport [CLOSED]

Public forecast

Using degrees Celsius for public forecast. Weather courtesy of forecast.io.

Closest aviation weather report (METAR) to Lutong Airport

Closest report is Miri Airport, 8.0 nm (14.9 km) S.

2024/02/24 15:00 (retrieved 46 minutes ago)

WBGR 241500Z 03002KT 9999 SCT016 26/25 Q1012

Closest aviation forecast (TAF) to Lutong Airport

Closest forecast is Miri Airport, 8.0 nm (14.9 km) S.

2024/02/24 12:00 (retrieved 4 hours ago)

TAF WBGR 241100Z 2412/2512 VRB03KT 9999 FEW016